createdAt,value
2023-01-09T00:00:30.035Z,99368.63
2023-01-09T00:02:56.484Z,99362.66
2023-01-09T00:05:22.980Z,99355.22
2023-01-09T00:07:49.405Z,99358.69
2023-01-09T00:10:15.927Z,99353.44
2023-01-09T00:12:42.776Z,99352.34
2023-01-09T00:15:10.020Z,99354.69
2023-01-09T00:17:36.398Z,99344.16
2023-01-09T00:20:04.450Z,99353.50
2023-01-09T00:22:31.035Z,99340.16
2023-01-09T00:24:57.435Z,99340.53
2023-01-09T00:27:23.838Z,99344.53
2023-01-09T00:29:50.256Z,99332.81
2023-01-09T00:32:16.650Z,99334.66
2023-01-09T00:34:43.384Z,99330.78
2023-01-09T00:37:11.912Z,99326.13
2023-01-09T00:39:42.618Z,99321.19
2023-01-09T00:42:13.218Z,99317.09
2023-01-09T00:45:00.059Z,99315.50
2023-01-09T00:47:35.459Z,99318.16
2023-01-09T00:50:09.984Z,99316.09
2023-01-09T00:52:37.896Z,99321.03
2023-01-09T00:55:05.425Z,99314.00
2023-01-09T00:57:31.895Z,99317.44
2023-01-09T00:59:59.481Z,99299.59
2023-01-09T01:02:26.040Z,99301.81
2023-01-09T01:05:10.754Z,99297.84
2023-01-09T01:07:39.801Z,99303.94
2023-01-09T01:10:10.368Z,99306.66
2023-01-09T01:12:38.283Z,99301.22
2023-01-09T01:15:06.197Z,99296.00
2023-01-09T01:17:40.391Z,99295.22
2023-01-09T01:20:12.808Z,99294.00
2023-01-09T01:22:39.196Z,99279.84
2023-01-09T01:25:05.726Z,99287.94
2023-01-09T01:27:32.208Z,99289.69
2023-01-09T01:29:58.619Z,99289.31
2023-01-09T01:32:25.059Z,99281.84
2023-01-09T01:34:51.565Z,99287.94
2023-01-09T01:37:18.068Z,99294.81
2023-01-09T01:39:44.535Z,99294.19
2023-01-09T01:42:14.462Z,99294.59
2023-01-09T01:45:02.513Z,99287.03
2023-01-09T01:47:40.744Z,99286.44
2023-01-09T01:50:16.384Z,99283.22
2023-01-09T01:52:48.113Z,99279.56
2023-01-09T01:55:16.584Z,99281.50
2023-01-09T01:57:48.265Z,99279.19
2023-01-09T02:00:14.991Z,99274.13
2023-01-09T02:02:43.484Z,99277.91
2023-01-09T02:05:10.017Z,99259.16
2023-01-09T02:07:36.472Z,99256.34
2023-01-09T02:10:04.192Z,99251.63
2023-01-09T02:12:30.612Z,99252.78
2023-01-09T02:15:05.952Z,99251.91
2023-01-09T02:18:06.413Z,99243.34
2023-01-09T02:20:52.445Z,99249.91
2023-01-09T02:23:27.877Z,99256.34
2023-01-09T02:26:31.769Z,99244.00
2023-01-09T02:29:35.929Z,99243.50
2023-01-09T02:32:41.629Z,99231.97
2023-01-09T02:35:22.977Z,99232.22
2023-01-09T02:38:21.150Z,99226.28
2023-01-09T02:41:14.114Z,99234.28
2023-01-09T02:43:41.627Z,99227.09
2023-01-09T02:46:21.176Z,99225.41
2023-01-09T02:48:52.620Z,99226.38
2023-01-09T02:51:43.857Z,99232.47
2023-01-09T02:54:41.111Z,99231.13
2023-01-09T02:57:16.859Z,99231.03
2023-01-09T03:00:02.378Z,99239.13
2023-01-09T03:02:43.612Z,99245.91
2023-01-09T03:05:22.743Z,99243.59
2023-01-09T03:08:06.702Z,99242.63
2023-01-09T03:11:02.113Z,99234.03
2023-01-09T03:13:37.434Z,99237.44
2023-01-09T03:16:07.921Z,99244.44
2023-01-09T03:18:37.000Z,99236.03
2023-01-09T03:21:06.343Z,99238.03
2023-01-09T03:23:50.579Z,99243.91
2023-01-09T03:26:18.333Z,99239.72
2023-01-09T03:28:45.918Z,99233.84
2023-01-09T03:31:12.743Z,99239.09
2023-01-09T03:33:39.539Z,99238.38
2023-01-09T03:36:06.792Z,99235.09
2023-01-09T03:38:33.971Z,99232.72
2023-01-09T03:41:00.423Z,99233.13
2023-01-09T03:43:26.859Z,99223.66
2023-01-09T03:45:53.299Z,99216.19
2023-01-09T03:48:19.737Z,99218.34
2023-01-09T03:50:49.059Z,99220.44
2023-01-09T03:53:15.839Z,99215.91
2023-01-09T03:55:51.012Z,99214.50
2023-01-09T03:58:17.996Z,99214.88
2023-01-09T04:00:46.055Z,99216.88
2023-01-09T04:03:12.886Z,99204.47
2023-01-09T04:05:39.420Z,99206.63
2023-01-09T04:08:06.065Z,99193.69
2023-01-09T04:10:32.743Z,99199.31
2023-01-09T04:12:59.137Z,99196.91
2023-01-09T04:15:25.762Z,99189.94
2023-01-09T04:17:52.232Z,99176.06
2023-01-09T04:20:18.775Z,99184.69
2023-01-09T04:22:45.393Z,99172.91
2023-01-09T04:25:12.171Z,99170.31
2023-01-09T04:27:38.795Z,99167.81
2023-01-09T04:30:05.894Z,99166.66
2023-01-09T04:32:32.407Z,99158.28
2023-01-09T04:34:58.864Z,99150.25
2023-01-09T04:37:25.256Z,99145.03
2023-01-09T04:39:54.763Z,99143.28
2023-01-09T04:42:21.608Z,99144.25
2023-01-09T04:44:47.979Z,99138.94
2023-01-09T04:47:14.441Z,99133.72
2023-01-09T04:49:40.865Z,99138.22
2023-01-09T04:52:07.265Z,99137.50
2023-01-09T04:54:34.470Z,99135.63
2023-01-09T04:57:00.995Z,99143.53
2023-01-09T04:59:27.428Z,99143.84
2023-01-09T05:01:55.637Z,99140.91
2023-01-09T05:04:22.241Z,99136.81
2023-01-09T05:06:48.694Z,99139.66
2023-01-09T05:09:15.172Z,99145.56
2023-01-09T05:11:41.650Z,99144.91
2023-01-09T05:14:08.050Z,99146.44
2023-01-09T05:16:34.493Z,99146.28
2023-01-09T05:19:01.232Z,99141.59
2023-01-09T05:21:27.773Z,99136.75
2023-01-09T05:23:54.170Z,99138.34
2023-01-09T05:26:24.921Z,99135.31
2023-01-09T05:28:52.517Z,99129.81
2023-01-09T05:31:20.180Z,99131.25
2023-01-09T05:33:46.853Z,99128.31
2023-01-09T05:36:13.223Z,99138.69
2023-01-09T05:38:39.844Z,99125.09
2023-01-09T05:41:06.364Z,99128.53
2023-01-09T05:43:32.978Z,99126.13
2023-01-09T05:45:59.554Z,99127.25
2023-01-09T05:48:26.044Z,99120.75
2023-01-09T05:50:52.580Z,99119.09
2023-01-09T05:53:19.029Z,99115.97
2023-01-09T05:55:45.452Z,99119.81
2023-01-09T05:58:12.729Z,99119.88
2023-01-09T06:00:39.209Z,99119.94
2023-01-09T06:03:05.742Z,99112.50
2023-01-09T06:05:32.359Z,99117.69
2023-01-09T06:07:58.783Z,99121.72
2023-01-09T06:10:25.210Z,99115.19
2023-01-09T06:12:53.056Z,99108.78
2023-01-09T06:15:20.535Z,99104.06
2023-01-09T06:17:47.533Z,99101.03
2023-01-09T06:20:14.070Z,99106.72
2023-01-09T06:22:40.492Z,99102.41
2023-01-09T06:25:07.497Z,99104.16
2023-01-09T06:27:33.878Z,99099.47
2023-01-09T06:30:00.277Z,99107.44
2023-01-09T06:32:26.709Z,99097.63
2023-01-09T06:34:53.169Z,99098.63
2023-01-09T06:37:19.677Z,99093.22
2023-01-09T06:39:46.087Z,99091.00
2023-01-09T06:42:12.465Z,99084.69
2023-01-09T06:44:38.877Z,99073.47
2023-01-09T06:47:05.367Z,99064.03
2023-01-09T06:49:31.777Z,99061.25
2023-01-09T06:51:58.295Z,99064.22
2023-01-09T06:54:24.832Z,99066.94
2023-01-09T06:56:51.239Z,99061.19
2023-01-09T06:59:17.637Z,99060.09
2023-01-09T07:01:44.171Z,99053.56
2023-01-09T07:04:11.104Z,99055.50
2023-01-09T07:06:38.145Z,99058.28
2023-01-09T07:09:06.095Z,99055.41
2023-01-09T07:11:33.017Z,99051.28
2023-01-09T07:13:59.704Z,99051.94
2023-01-09T07:16:26.235Z,99055.50
2023-01-09T07:18:52.742Z,99051.50
2023-01-09T07:21:19.186Z,99057.69
2023-01-09T07:23:45.681Z,99062.91
2023-01-09T07:26:12.114Z,99069.75
2023-01-09T07:28:38.521Z,99081.38
2023-01-09T07:31:07.501Z,99072.97
2023-01-09T07:33:34.452Z,99072.91
2023-01-09T07:36:00.940Z,99074.53
2023-01-09T07:38:27.432Z,99077.09
2023-01-09T07:40:53.818Z,99076.31
2023-01-09T07:43:20.268Z,99081.75
2023-01-09T07:45:46.684Z,99080.28
2023-01-09T07:48:13.112Z,99078.50
2023-01-09T07:50:39.495Z,99078.06
2023-01-09T07:53:05.914Z,99084.28
2023-01-09T07:55:32.313Z,99078.50
2023-01-09T07:57:58.699Z,99081.66
2023-01-09T08:00:25.279Z,99087.53
2023-01-09T08:02:53.426Z,99085.69
2023-01-09T08:05:20.916Z,99081.06
2023-01-09T08:07:47.988Z,99078.59
2023-01-09T08:10:14.810Z,99081.13
2023-01-09T08:12:44.117Z,99084.09
2023-01-09T08:15:11.211Z,99084.09
2023-01-09T08:17:40.420Z,99079.06
2023-01-09T08:20:06.967Z,99078.66
2023-01-09T08:22:33.401Z,99082.63
2023-01-09T08:24:59.783Z,99075.69
2023-01-09T08:27:26.217Z,99081.06
2023-01-09T08:29:52.656Z,99081.50
2023-01-09T08:32:19.115Z,99091.22
2023-01-09T08:34:45.676Z,99082.25
2023-01-09T08:37:12.163Z,99091.44
2023-01-09T08:39:38.656Z,99098.19
2023-01-09T08:42:23.838Z,99082.09
2023-01-09T08:45:08.460Z,99081.44
2023-01-09T08:47:35.025Z,99080.16
2023-01-09T08:50:01.573Z,99085.56
2023-01-09T08:52:30.610Z,99087.25
2023-01-09T08:54:57.255Z,99098.22
2023-01-09T08:57:24.334Z,99097.34
2023-01-09T08:59:50.823Z,99089.53
2023-01-09T09:02:17.247Z,99092.75
2023-01-09T09:04:43.771Z,99088.50
2023-01-09T09:07:10.176Z,99102.59
2023-01-09T09:09:36.571Z,99094.78
2023-01-09T09:12:03.057Z,99097.50
2023-01-09T09:14:48.112Z,99108.13
2023-01-09T09:17:14.614Z,99107.38
2023-01-09T09:19:42.609Z,99114.25
2023-01-09T09:22:09.177Z,99100.25
2023-01-09T09:24:35.623Z,99109.16
2023-01-09T09:27:02.064Z,99111.53
2023-01-09T09:29:28.620Z,99118.56
2023-01-09T09:31:55.096Z,99130.28
2023-01-09T09:34:22.451Z,99130.78
2023-01-09T09:36:48.978Z,99133.13
2023-01-09T09:39:15.398Z,99135.41
2023-01-09T09:42:16.172Z,99132.75
2023-01-09T09:45:04.906Z,99123.91
2023-01-09T09:47:40.471Z,99123.41
2023-01-09T09:50:28.269Z,99132.91
2023-01-09T09:53:10.623Z,99124.00
2023-01-09T09:55:40.063Z,99120.00
2023-01-09T09:58:29.121Z,99120.88
2023-01-09T10:00:57.067Z,99118.88
2023-01-09T10:03:33.307Z,99122.00
2023-01-09T10:06:05.779Z,99114.31
2023-01-09T10:08:58.170Z,99119.28
2023-01-09T10:11:32.903Z,99130.53
2023-01-09T10:14:08.232Z,99141.50
2023-01-09T10:16:47.741Z,99138.34
2023-01-09T10:19:38.675Z,99135.44
2023-01-09T10:22:30.063Z,99136.91
2023-01-09T10:25:22.638Z,99145.59
2023-01-09T10:28:19.699Z,99145.22
2023-01-09T10:30:51.784Z,99153.91
2023-01-09T10:33:31.051Z,99154.19
2023-01-09T10:36:28.922Z,99153.38
2023-01-09T10:39:00.039Z,99151.50
2023-01-09T10:42:00.215Z,99151.84
2023-01-09T10:44:37.364Z,99151.78
2023-01-09T10:47:17.127Z,99151.50
2023-01-09T10:49:46.236Z,99165.91
2023-01-09T10:52:17.978Z,99161.19
2023-01-09T10:54:56.964Z,99147.72
2023-01-09T10:57:40.204Z,99158.94
2023-01-09T11:00:08.468Z,99170.78
2023-01-09T11:02:36.036Z,99175.69
2023-01-09T11:05:02.670Z,99176.81
2023-01-09T11:07:37.497Z,99175.13
2023-01-09T11:10:07.894Z,99178.34
2023-01-09T11:12:35.937Z,99178.28
2023-01-09T11:15:34.551Z,99178.47
2023-01-09T11:18:24.455Z,99188.53
2023-01-09T11:20:51.794Z,99197.97
2023-01-09T11:23:30.402Z,99198.75
2023-01-09T11:25:59.899Z,99201.16
2023-01-09T11:28:26.520Z,99206.91
2023-01-09T11:31:02.837Z,99205.63
2023-01-09T11:33:36.984Z,99216.41
2023-01-09T11:36:14.928Z,99214.72
2023-01-09T11:38:50.940Z,99225.84
2023-01-09T11:41:20.904Z,99224.19
2023-01-09T11:43:50.532Z,99223.50
2023-01-09T11:46:38.079Z,99228.91
2023-01-09T11:49:33.821Z,99232.44
2023-01-09T11:52:20.877Z,99238.63
2023-01-09T11:55:04.206Z,99242.16
2023-01-09T11:57:31.452Z,99241.47
2023-01-09T12:00:01.976Z,99247.13
2023-01-09T12:02:46.620Z,99244.56
2023-01-09T12:05:30.244Z,99254.75
2023-01-09T12:08:05.911Z,99263.72
2023-01-09T12:10:35.081Z,99268.63
2023-01-09T12:13:06.140Z,99264.97
2023-01-09T12:15:49.201Z,99268.75
2023-01-09T12:18:49.589Z,99271.16
2023-01-09T12:21:25.451Z,99272.06
2023-01-09T12:24:00.942Z,99279.50
2023-01-09T12:26:46.637Z,99285.00
2023-01-09T12:29:25.649Z,99279.34
2023-01-09T12:32:21.778Z,99285.19
2023-01-09T12:35:06.545Z,99288.16
2023-01-09T12:37:50.819Z,99285.91
2023-01-09T12:40:17.205Z,99285.94
2023-01-09T12:42:58.038Z,99278.19
2023-01-09T12:45:39.767Z,99285.63
2023-01-09T12:48:31.252Z,99286.41
2023-01-09T12:51:28.957Z,99302.78
2023-01-09T12:54:22.089Z,99312.13
2023-01-09T12:56:53.426Z,99315.63
2023-01-09T12:59:32.024Z,99321.84
2023-01-09T13:02:18.739Z,99335.34
2023-01-09T13:05:02.412Z,99325.34
2023-01-09T13:08:21.359Z,99334.63
2023-01-09T13:10:57.492Z,99331.69
2023-01-09T13:13:35.162Z,99332.00
2023-01-09T13:16:08.361Z,99329.75
2023-01-09T13:18:52.611Z,99333.91
2023-01-09T13:21:19.496Z,99329.22
2023-01-09T13:24:12.107Z,99344.09
2023-01-09T13:26:46.597Z,99351.16
2023-01-09T13:29:16.381Z,99356.09
2023-01-09T13:32:01.178Z,99365.91
2023-01-09T13:34:30.641Z,99361.19
2023-01-09T13:36:58.612Z,99359.81
2023-01-09T13:39:34.023Z,99364.13
2023-01-09T13:42:24.798Z,99363.28
2023-01-09T13:44:55.619Z,99358.59
2023-01-09T13:47:25.457Z,99360.44
2023-01-09T13:49:51.960Z,99365.44
2023-01-09T13:52:24.309Z,99366.50
2023-01-09T13:55:02.823Z,99364.94
2023-01-09T13:57:31.076Z,99372.59
2023-01-09T14:00:16.860Z,99367.97
2023-01-09T14:02:46.887Z,99381.22
2023-01-09T14:05:15.972Z,99382.31
2023-01-09T14:07:49.379Z,99383.34
2023-01-09T14:10:23.215Z,99386.34
2023-01-09T14:12:51.756Z,99393.25
2023-01-09T14:15:42.045Z,99390.47
2023-01-09T14:18:31.019Z,99390.81
2023-01-09T14:23:52.763Z,99409.16
2023-01-09T14:26:23.653Z,99413.06
2023-01-09T14:28:50.615Z,99419.28
2023-01-09T14:31:29.921Z,99426.31
2023-01-09T14:34:31.871Z,99423.22
2023-01-09T14:37:01.453Z,99429.47
2023-01-09T14:39:31.841Z,99428.69
2023-01-09T14:42:09.205Z,99436.91
2023-01-09T14:44:48.855Z,99440.06
2023-01-09T14:47:28.361Z,99440.06
2023-01-09T14:50:29.711Z,99444.38
2023-01-09T14:53:18.075Z,99441.72
2023-01-09T14:55:58.279Z,99446.00
2023-01-09T14:58:36.078Z,99445.22
2023-01-09T15:01:18.915Z,99441.72
2023-01-09T15:03:58.827Z,99448.81
2023-01-09T15:06:33.121Z,99445.66
2023-01-09T15:09:24.579Z,99463.44
2023-01-09T15:11:55.027Z,99460.69
2023-01-09T15:14:35.921Z,99462.69
2023-01-09T15:17:04.170Z,99462.25
2023-01-09T15:19:32.063Z,99470.41
2023-01-09T15:22:01.651Z,99469.53
2023-01-09T15:24:30.809Z,99471.53
2023-01-09T15:27:01.040Z,99473.13
2023-01-09T15:29:28.614Z,99474.69
2023-01-09T15:32:05.466Z,99477.06
2023-01-09T15:34:33.215Z,99481.63
2023-01-09T15:37:00.872Z,99484.78
2023-01-09T15:39:38.987Z,99495.69
2023-01-09T15:42:40.581Z,99481.63
2023-01-09T15:45:18.717Z,99492.53
2023-01-09T15:47:45.388Z,99502.38
2023-01-09T15:53:29.116Z,99503.59
2023-01-09T15:56:24.865Z,99499.38
2023-01-09T15:58:54.807Z,99498.13
2023-01-09T16:01:41.620Z,99499.22
2023-01-09T16:04:16.316Z,99502.31
2023-01-09T16:06:48.809Z,99508.03
2023-01-09T16:09:18.344Z,99516.59
2023-01-09T16:11:54.147Z,99511.78
2023-01-09T16:14:38.275Z,99514.78
2023-01-09T16:17:07.551Z,99518.94
2023-01-09T16:19:52.242Z,99531.28
2023-01-09T16:22:32.324Z,99529.25
2023-01-09T16:25:38.882Z,99527.50
2023-01-09T16:31:08.740Z,99538.00
2023-01-09T16:33:36.003Z,99539.56
2023-01-09T16:36:04.920Z,99533.84
2023-01-09T16:38:31.478Z,99544.03
2023-01-09T16:41:22.120Z,99554.19
2023-01-09T16:43:49.456Z,99559.66
2023-01-09T16:46:17.527Z,99561.66
2023-01-09T16:48:44.237Z,99563.25
2023-01-09T16:51:16.809Z,99552.13
2023-01-09T16:53:44.177Z,99557.66
2023-01-09T16:56:17.646Z,99558.81
2023-01-09T16:58:44.128Z,99561.38
2023-01-09T17:01:13.302Z,99556.47
2023-01-09T17:03:43.540Z,99555.53
2023-01-09T17:06:29.406Z,99543.75
2023-01-09T17:08:56.199Z,99545.31
2023-01-09T17:11:28.226Z,99545.75
2023-01-09T17:13:54.671Z,99550.09
2023-01-09T17:16:21.215Z,99553.22
2023-01-09T17:18:47.791Z,99547.06
2023-01-09T17:21:19.974Z,99539.09
2023-01-09T17:23:47.320Z,99536.75
2023-01-09T17:26:38.401Z,99550.78
2023-01-09T17:29:05.495Z,99536.66
2023-01-09T17:31:32.311Z,99544.84
2023-01-09T17:33:59.131Z,99542.59
2023-01-09T17:36:34.682Z,99551.94
2023-01-09T17:39:01.977Z,99556.09
2023-01-09T17:41:30.541Z,99560.66
2023-01-09T17:43:59.108Z,99565.75
2023-01-09T17:46:37.284Z,99568.81
2023-01-09T17:49:05.418Z,99578.03
2023-01-09T17:51:32.230Z,99583.78
2023-01-09T17:53:59.355Z,99587.28
2023-01-09T17:56:29.099Z,99599.19
2023-01-09T17:58:55.863Z,99600.53
2023-01-09T18:01:22.401Z,99598.19
2023-01-09T18:03:50.376Z,99608.88
2023-01-09T18:06:18.834Z,99611.88
2023-01-09T18:08:46.041Z,99603.63
2023-01-09T18:11:18.100Z,99604.78
2023-01-09T18:13:45.944Z,99611.16
2023-01-09T18:16:14.305Z,99613.03
2023-01-09T18:18:40.996Z,99618.59
2023-01-09T18:21:08.637Z,99622.59
2023-01-09T18:23:38.101Z,99617.22
2023-01-09T18:26:08.869Z,99616.78
2023-01-09T18:28:39.426Z,99617.88
2023-01-09T18:31:06.484Z,99622.88
2023-01-09T18:33:33.171Z,99620.22
2023-01-09T18:36:08.208Z,99627.78
2023-01-09T18:38:35.458Z,99634.69
2023-01-09T18:41:03.577Z,99632.94
2023-01-09T18:43:30.541Z,99631.72
2023-01-09T18:45:57.389Z,99632.50
2023-01-09T18:48:24.110Z,99637.44
2023-01-09T18:50:50.760Z,99636.06
2023-01-09T18:53:17.339Z,99629.72
2023-01-09T18:55:43.874Z,99631.38
2023-01-09T18:58:10.327Z,99631.72
2023-01-09T19:00:36.927Z,99640.16
2023-01-09T19:03:03.476Z,99643.00
2023-01-09T19:05:33.693Z,99645.19
2023-01-09T19:08:00.949Z,99643.25
2023-01-09T19:10:28.063Z,99652.28
2023-01-09T19:12:54.685Z,99651.84
2023-01-09T19:15:21.229Z,99654.03
2023-01-09T19:17:50.363Z,99647.28
2023-01-09T19:20:17.212Z,99655.69
2023-01-09T19:22:43.705Z,99661.28
2023-01-09T19:25:12.618Z,99670.06
2023-01-09T19:27:39.458Z,99665.66
2023-01-09T19:30:07.223Z,99675.66
2023-01-09T19:32:33.885Z,99678.28
2023-01-09T19:35:00.362Z,99676.09
2023-01-09T19:37:26.836Z,99678.91
2023-01-09T19:39:53.252Z,99675.03
2023-01-09T19:42:19.829Z,99689.78
2023-01-09T19:44:46.322Z,99692.00
2023-01-09T19:47:13.996Z,99705.25
2023-01-09T19:49:40.646Z,99704.56
2023-01-09T19:52:07.244Z,99699.88
2023-01-09T19:54:33.766Z,99717.09
2023-01-09T19:57:00.284Z,99713.47
2023-01-09T19:59:26.915Z,99712.25
2023-01-09T20:01:53.512Z,99720.19
2023-01-09T20:04:20.134Z,99721.75
2023-01-09T20:06:48.914Z,99725.50
2023-01-09T20:09:18.077Z,99723.94
2023-01-09T20:11:44.840Z,99724.88
2023-01-09T20:14:15.495Z,99724.06
2023-01-09T20:16:44.996Z,99736.00
2023-01-09T20:19:12.915Z,99738.50
2023-01-09T20:21:39.824Z,99739.53
2023-01-09T20:24:07.583Z,99741.63
2023-01-09T20:26:36.053Z,99733.38
2023-01-09T20:29:03.095Z,99747.13
2023-01-09T20:31:31.600Z,99754.28
2023-01-09T20:34:01.550Z,99748.34
2023-01-09T20:36:30.135Z,99758.63
2023-01-09T20:38:58.408Z,99756.47
2023-01-09T20:41:25.837Z,99764.66
2023-01-09T20:43:57.715Z,99770.09
2023-01-09T20:46:26.828Z,99764.75
2023-01-09T20:48:57.758Z,99768.53
2023-01-09T20:51:25.256Z,99778.88
2023-01-09T20:53:58.427Z,99770.56
2023-01-09T20:56:30.424Z,99768.06
2023-01-09T20:58:58.426Z,99768.41
2023-01-09T21:01:25.885Z,99773.53
2023-01-09T21:03:54.437Z,99786.00
2023-01-09T21:06:22.874Z,99788.44
2023-01-09T21:08:50.826Z,99791.50
2023-01-09T21:11:17.855Z,99797.28
2023-01-09T21:13:44.301Z,99796.84
2023-01-09T21:16:15.962Z,99797.81
2023-01-09T21:18:43.321Z,99806.03
2023-01-09T21:21:21.360Z,99819.16
2023-01-09T21:23:51.733Z,99816.88
2023-01-09T21:26:22.156Z,99825.94
2023-01-09T21:28:50.095Z,99828.31
2023-01-09T21:31:19.364Z,99828.03
2023-01-09T21:33:47.003Z,99839.25
2023-01-09T21:36:13.804Z,99840.06
2023-01-09T21:38:40.530Z,99854.22
2023-01-09T21:41:25.208Z,99853.19
2023-01-09T21:44:09.939Z,99868.38
2023-01-09T21:46:51.776Z,99882.19
2023-01-09T21:49:23.158Z,99876.53
2023-01-09T21:51:49.567Z,99875.06
2023-01-09T21:54:16.027Z,99888.34
2023-01-09T21:56:42.444Z,99884.34
2023-01-09T21:59:08.999Z,99882.56
2023-01-09T22:01:35.684Z,99893.09
2023-01-09T22:04:03.751Z,99894.94
2023-01-09T22:06:30.185Z,99903.53
2023-01-09T22:08:57.118Z,99904.22
2023-01-09T22:11:23.588Z,99903.53
2023-01-09T22:13:50.734Z,99910.31
2023-01-09T22:16:18.114Z,99912.28
2023-01-09T22:18:44.582Z,99913.78
2023-01-09T22:21:11.247Z,99910.34
2023-01-09T22:23:37.797Z,99912.38
2023-01-09T22:26:10.136Z,99920.75
2023-01-09T22:28:36.641Z,99924.16
2023-01-09T22:31:03.318Z,99917.03
2023-01-09T22:33:29.718Z,99925.31
2023-01-09T22:35:56.172Z,99925.75
2023-01-09T22:38:22.590Z,99939.25
2023-01-09T22:40:49.813Z,99929.81
2023-01-09T22:43:17.181Z,99946.94
2023-01-09T22:45:43.749Z,99938.31
2023-01-09T22:48:10.251Z,99941.19
2023-01-09T22:50:37.099Z,99947.72
2023-01-09T22:53:03.926Z,99952.28
2023-01-09T22:55:30.346Z,99958.88
2023-01-09T22:57:56.723Z,99964.53
2023-01-09T23:00:23.205Z,99966.13
2023-01-09T23:02:49.836Z,99968.16
2023-01-09T23:05:16.408Z,99967.94
2023-01-09T23:07:42.822Z,99978.59
2023-01-09T23:10:09.908Z,99978.34
2023-01-09T23:12:36.296Z,99975.63
2023-01-09T23:15:02.836Z,99985.81
2023-01-09T23:17:29.225Z,99993.31
2023-01-09T23:19:55.661Z,99993.75
2023-01-09T23:22:22.772Z,100000.81
2023-01-09T23:24:49.182Z,99999.09
2023-01-09T23:27:15.571Z,100000.47
2023-01-09T23:29:41.978Z,100001.94
2023-01-09T23:32:08.537Z,100007.03
2023-01-09T23:34:35.114Z,100005.34
2023-01-09T23:37:01.629Z,100018.44
2023-01-09T23:39:28.053Z,100021.69
2023-01-09T23:42:13.107Z,100023.03
2023-01-09T23:44:39.600Z,100033.00
2023-01-09T23:47:06.076Z,100028.38
2023-01-09T23:49:32.506Z,100029.28
2023-01-09T23:52:01.534Z,100030.63
2023-01-09T23:54:28.496Z,100035.38
2023-01-09T23:56:56.402Z,100043.47
2023-01-09T23:59:23.228Z,100046.41
